EmailTwitter


Surface observations / France / LFBO (07630)

Regions: Quebec | Canada | USA | Europe | France | UK | Elsewhere
Station
Display
Info & Location for LFBO (07630) | Help decoding METAR

Weather Conditions observed on 2019/01/20 at 19:00 UTC at TOULOUSE/BLAGNAC, FR (LFBO)

Sky conditions: overcast.

Temperature: 7.0 Celsius.

Dewpoint: 6.0 Celsius.

Relative Humidity: 93%

Winds: Northwest at 9 km/h or 5 knots.

Mean Sea level Pressure: 101.50 kilopascals.

Horizontal visibility: 6.21 statute miles or 9.94 kilometers.

Height of the Ceiling: 732 metres ( 2400 feet ).

Coded METAR:

LFBO 201900Z AUTO 30005KT 9999 FEW015 BKN024 OVC054 07/06 Q1015 TEMPO 4000 SHRA

BKN008 BKN014TCU=